createdAt,value
2017-11-08T00:00:04.446Z,0
2017-11-08T00:05:02.760Z,0
2017-11-08T00:10:03.257Z,0
2017-11-08T00:15:02.797Z,0
2017-11-08T00:20:03.308Z,0
2017-11-08T00:25:02.970Z,0
2017-11-08T00:30:02.533Z,0
2017-11-08T00:35:03.023Z,0
2017-11-08T00:40:02.687Z,0
2017-11-08T00:45:03.223Z,0
2017-11-08T00:50:02.636Z,0
2017-11-08T00:55:03.318Z,0
2017-11-08T01:00:02.937Z,0
2017-11-08T01:05:02.874Z,0
2017-11-08T01:10:03.446Z,0
2017-11-08T01:15:02.908Z,0
2017-11-08T01:20:02.561Z,0
2017-11-08T01:25:03.176Z,0
2017-11-08T01:30:02.675Z,0
2017-11-08T01:35:03.271Z,0
2017-11-08T01:40:02.966Z,0
2017-11-08T01:45:02.495Z,0
2017-11-08T01:50:03.152Z,0
2017-11-08T01:55:02.608Z,0
2017-11-08T02:00:03.038Z,0
2017-11-08T02:05:02.491Z,0
2017-11-08T02:10:03.282Z,0
2017-11-08T02:15:02.729Z,0
2017-11-08T02:20:03.208Z,0
2017-11-08T02:25:02.835Z,0
2017-11-08T02:30:02.496Z,0
2017-11-08T02:35:03.159Z,0
2017-11-08T02:40:02.824Z,0
2017-11-08T02:45:03.101Z,0
2017-11-08T02:50:02.586Z,0
2017-11-08T02:55:03.099Z,0
2017-11-08T03:00:02.676Z,0
2017-11-08T03:05:03.244Z,0
2017-11-08T03:10:02.989Z,0
2017-11-08T03:15:02.577Z,0
2017-11-08T03:20:03.120Z,0
2017-11-08T03:25:02.760Z,0
2017-11-08T03:30:02.528Z,0
2017-11-08T03:35:03.043Z,0
2017-11-08T03:40:02.710Z,0
2017-11-08T03:45:03.324Z,0
2017-11-08T03:50:03.012Z,0
2017-11-08T03:55:02.634Z,0
2017-11-08T04:00:03.235Z,0
2017-11-08T04:05:02.734Z,0
2017-11-08T04:10:03.235Z,0
2017-11-08T04:15:02.814Z,0
2017-11-08T04:20:03.435Z,0
2017-11-08T04:25:02.869Z,0
2017-11-08T04:30:03.334Z,0
2017-11-08T04:35:02.919Z,0
2017-11-08T04:40:02.646Z,0
2017-11-08T04:45:03.113Z,0
2017-11-08T04:50:02.833Z,0
2017-11-08T04:55:02.491Z,0
2017-11-08T05:00:03.242Z,0
2017-11-08T05:05:02.944Z,0
2017-11-08T05:10:02.654Z,0
2017-11-08T05:15:03.126Z,0
2017-11-08T05:20:02.601Z,0
2017-11-08T05:25:03.234Z,0
2017-11-08T05:30:03.365Z,0
2017-11-08T05:35:02.890Z,0
2017-11-08T05:40:03.424Z,0
2017-11-08T05:45:02.899Z,0
2017-11-08T05:50:03.403Z,0
2017-11-08T05:55:02.911Z,0
2017-11-08T06:00:02.572Z,0
2017-11-08T06:05:03.062Z,0
2017-11-08T06:10:02.609Z,0
2017-11-08T06:15:03.103Z,1
2017-11-08T06:20:02.586Z,3
2017-11-08T06:25:03.113Z,6
2017-11-08T06:30:02.771Z,12
2017-11-08T06:35:03.373Z,23
2017-11-08T06:40:03.033Z,39
2017-11-08T06:45:02.471Z,45
2017-11-08T06:50:02.979Z,49
2017-11-08T06:55:02.629Z,57
2017-11-08T07:00:03.219Z,67
2017-11-08T07:05:02.945Z,105
2017-11-08T07:10:02.659Z,302
2017-11-08T07:15:03.256Z,563
2017-11-08T07:20:02.879Z,774
2017-11-08T07:25:03.415Z,642
2017-11-08T07:30:03.095Z,511
2017-11-08T07:35:02.613Z,478
2017-11-08T07:40:03.287Z,609
2017-11-08T07:45:02.869Z,701
2017-11-08T07:50:02.500Z,902
2017-11-08T07:55:03.014Z,1000
2017-11-08T08:00:02.687Z,1000
2017-11-08T08:05:03.297Z,1000
2017-11-08T08:10:02.965Z,858
2017-11-08T08:15:03.439Z,727
2017-11-08T08:20:03.045Z,606
2017-11-08T08:25:02.533Z,627
2017-11-08T08:30:03.270Z,718
2017-11-08T08:35:02.896Z,906
2017-11-08T08:40:02.621Z,1000
2017-11-08T08:45:03.249Z,852
2017-11-08T08:50:02.940Z,881
2017-11-08T08:55:03.444Z,962
2017-11-08T09:00:03.180Z,1000
2017-11-08T09:05:02.727Z,1000
2017-11-08T09:10:03.269Z,1000
2017-11-08T09:15:02.672Z,1000
2017-11-08T09:20:03.362Z,1000
2017-11-08T09:25:02.745Z,1000
2017-11-08T09:30:03.378Z,1000
2017-11-08T09:35:03.109Z,1000
2017-11-08T09:40:02.790Z,1000
2017-11-08T09:45:03.192Z,1000
2017-11-08T09:50:03.080Z,1000
2017-11-08T09:55:02.536Z,1000
2017-11-08T10:00:03.028Z,1000
2017-11-08T10:05:02.735Z,2000
2017-11-08T10:10:03.471Z,2000
2017-11-08T10:15:03.041Z,3000
2017-11-08T10:20:02.780Z,3000
2017-11-08T10:25:03.336Z,2000
2017-11-08T10:30:02.879Z,1000
2017-11-08T10:35:02.555Z,2000
2017-11-08T10:40:03.289Z,1000
2017-11-08T10:45:02.692Z,909
2017-11-08T10:50:03.434Z,897
2017-11-08T10:55:03.060Z,1000
2017-11-08T11:00:02.495Z,1000
2017-11-08T11:05:03.183Z,1000
2017-11-08T11:10:02.809Z,1000
2017-11-08T11:15:03.361Z,1000
2017-11-08T11:20:02.996Z,1000
2017-11-08T11:25:02.745Z,1000
2017-11-08T11:30:03.382Z,1000
2017-11-08T11:35:02.889Z,1000
2017-11-08T11:40:02.649Z,1000
2017-11-08T11:45:03.160Z,2000
2017-11-08T11:50:02.845Z,1000
2017-11-08T11:55:03.396Z,2000
2017-11-08T12:00:03.197Z,2000
2017-11-08T12:05:02.928Z,2000
2017-11-08T12:10:02.617Z,2000
2017-11-08T12:15:03.279Z,2000
2017-11-08T12:20:02.814Z,2000
2017-11-08T12:25:03.367Z,2000
2017-11-08T12:30:03.092Z,3000
2017-11-08T12:35:02.858Z,3000
2017-11-08T12:40:02.506Z,3000
2017-11-08T12:45:03.192Z,1000
2017-11-08T12:50:02.687Z,2000
2017-11-08T12:55:03.422Z,2000
2017-11-08T13:00:02.924Z,2000
2017-11-08T13:05:02.640Z,2000
2017-11-08T13:10:03.333Z,2000
2017-11-08T13:15:02.803Z,2000
2017-11-08T13:20:02.506Z,2000
2017-11-08T13:25:03.339Z,2000
2017-11-08T13:30:03.017Z,2000
2017-11-08T13:35:02.591Z,1000
2017-11-08T13:40:03.157Z,1000
2017-11-08T13:45:02.808Z,1000
2017-11-08T13:50:03.464Z,1000
2017-11-08T13:55:02.999Z,1000
2017-11-08T14:00:02.531Z,1000
2017-11-08T14:05:03.035Z,1000
2017-11-08T14:10:02.809Z,1000
2017-11-08T14:15:03.285Z,734
2017-11-08T14:20:03.032Z,741
2017-11-08T14:25:02.562Z,867
2017-11-08T14:30:03.101Z,1000
2017-11-08T14:35:02.649Z,947
2017-11-08T14:40:03.178Z,945
2017-11-08T14:45:02.659Z,628
2017-11-08T14:50:03.227Z,497
2017-11-08T14:55:02.952Z,462
2017-11-08T15:00:03.425Z,442
2017-11-08T15:05:03.057Z,397
2017-11-08T15:10:02.811Z,328
2017-11-08T15:15:03.304Z,326
2017-11-08T15:20:02.973Z,220
2017-11-08T15:25:02.504Z,158
2017-11-08T15:30:03.064Z,83
2017-11-08T15:35:02.587Z,64
2017-11-08T15:40:03.269Z,60
2017-11-08T15:45:02.886Z,55
2017-11-08T15:50:02.622Z,47
2017-11-08T15:55:03.360Z,43
2017-11-08T16:00:03.019Z,32
2017-11-08T16:05:02.529Z,25
2017-11-08T16:10:03.085Z,15
2017-11-08T16:15:02.786Z,9
2017-11-08T16:20:02.707Z,4
2017-11-08T16:25:03.325Z,1
2017-11-08T16:30:02.853Z,0
2017-11-08T16:35:02.591Z,0
2017-11-08T16:40:03.177Z,0
2017-11-08T16:45:02.875Z,0
2017-11-08T16:50:03.415Z,0
2017-11-08T16:55:02.941Z,0
2017-11-08T17:00:02.568Z,0
2017-11-08T17:05:03.124Z,0
2017-11-08T17:10:02.818Z,0
2017-11-08T17:15:03.320Z,0
2017-11-08T17:20:02.942Z,0
2017-11-08T17:25:03.433Z,0
2017-11-08T17:30:02.929Z,0
2017-11-08T17:35:02.625Z,0
2017-11-08T17:40:03.349Z,0
2017-11-08T17:45:02.862Z,0
2017-11-08T17:50:03.388Z,0
2017-11-08T17:55:02.859Z,0
2017-11-08T18:00:02.501Z,0
2017-11-08T18:05:03.148Z,0
2017-11-08T18:10:02.815Z,0
2017-11-08T18:15:03.469Z,0
2017-11-08T18:20:03.085Z,0
2017-11-08T18:25:02.647Z,0
2017-11-08T18:30:03.178Z,0
2017-11-08T18:35:02.763Z,0
2017-11-08T18:40:03.485Z,0
2017-11-08T18:50:02.775Z,0
2017-11-08T18:55:03.430Z,0
2017-11-08T19:00:03.046Z,0
2017-11-08T19:05:02.597Z,0
2017-11-08T19:10:03.147Z,0
2017-11-08T19:15:02.766Z,0
2017-11-08T19:20:03.503Z,0
2017-11-08T19:25:03.008Z,0
2017-11-08T19:30:02.557Z,0
2017-11-08T19:35:03.198Z,0
2017-11-08T19:40:02.718Z,0
2017-11-08T19:45:03.237Z,0
2017-11-08T19:50:02.823Z,0
2017-11-08T19:55:03.294Z,0
2017-11-08T20:00:03.017Z,0
2017-11-08T20:05:02.629Z,0
2017-11-08T20:10:03.270Z,0
2017-11-08T20:15:02.800Z,0
2017-11-08T20:20:03.374Z,0
2017-11-08T20:25:02.888Z,0
2017-11-08T20:30:03.430Z,0
2017-11-08T20:35:02.937Z,0
2017-11-08T20:40:02.519Z,0
2017-11-08T20:45:03.050Z,0
2017-11-08T20:50:02.563Z,0
2017-11-08T20:55:03.176Z,0
2017-11-08T21:00:02.728Z,0
2017-11-08T21:05:03.432Z,0
2017-11-08T21:10:03.028Z,0
2017-11-08T21:15:02.733Z,0
2017-11-08T21:20:03.218Z,0
2017-11-08T21:25:02.732Z,0
2017-11-08T21:30:03.392Z,0
2017-11-08T21:35:03.096Z,0
2017-11-08T21:40:02.710Z,0
2017-11-08T21:45:03.332Z,0
2017-11-08T21:50:02.823Z,0
2017-11-08T21:55:02.490Z,0
2017-11-08T22:00:03.148Z,0
2017-11-08T22:05:03.032Z,0
2017-11-08T22:10:02.584Z,0
2017-11-08T22:15:03.265Z,0
2017-11-08T22:20:02.789Z,0
2017-11-08T22:25:03.348Z,0
2017-11-08T22:30:02.832Z,0
2017-11-08T22:35:03.336Z,0
2017-11-08T22:40:02.872Z,0
2017-11-08T22:45:03.444Z,0
2017-11-08T22:50:03.060Z,0
2017-11-08T22:55:02.637Z,0
2017-11-08T23:00:03.117Z,0
2017-11-08T23:05:02.556Z,0
2017-11-08T23:10:03.330Z,0
2017-11-08T23:15:02.965Z,0
2017-11-08T23:20:02.606Z,0
2017-11-08T23:25:03.303Z,0
2017-11-08T23:30:02.907Z,0
2017-11-08T23:35:03.428Z,0
2017-11-08T23:40:02.980Z,0
2017-11-08T23:45:02.755Z,0
2017-11-08T23:50:02.689Z,0
2017-11-08T23:55:03.192Z,0
